Nearby METAR Reports

 

KFRG - , , USA
Distance from station: SSW 12mi, 20km
Updated: 01/23/2020 5:53pm
Clear
Clear
 Wind from calm
Wind: Calm
Temperature: 41°F , 5°C
Dew Point: 27°F , -3°C
Humidity: 57%
Barometer: 30.36 inHg , 1028.1 hPa
Clouds: Clear
Visibility: 10 miles , 16 km
2020/01/23 22:53 KFRG 232253Z 00000KT 10SM CLR 05/M03 A3036 RMK AO2 SLP280 T00501028
KISP - , , USA
Distance from station: ESE 14mi, 23km
Updated: 01/23/2020 5:56pm
Overcast
Overcast
 Wind from WSW
Wind: WSW 3 mph , 6 km/h
Temperature: 36°F , 2°C
Dew Point: 27°F , -3°C
Humidity: 70%
Barometer: 30.36 inHg , 1028.1 hPa
Clouds: Overcast
Visibility: 10 miles , 16 km
Cloud details: Overcast 23000 ft
2020/01/23 22:56 KISP 232256Z 24003KT 10SM OVC230 02/M03 A3036 RMK AO2 SLP282 T00221033
 
KBDR - , , USA
Distance from station: NNE 21mi, 34km
Updated: 01/23/2020 5:52pm
Clear
Clear
 Wind from calm
Wind: Calm
Temperature: 36°F , 2°C
Dew Point: 27°F , -3°C
Humidity: 70%
Barometer: 30.35 inHg , 1027.8 hPa
Clouds: Clear
Visibility: 9 miles , 14 km
2020/01/23 22:52 KBDR 232252Z 00000KT 9SM CLR 02/M03 A3035 RMK AO2 SLP277 T00171028
KHPN - , , USA
Distance from station: WNW 22mi, 35km
Updated: 01/23/2020 5:56pm
Clear
Clear
 Wind from calm
Wind: Calm
Temperature: 36°F , 2°C
Dew Point: 16°F , -9°C
Humidity: 44%
Barometer: 30.33 inHg , 1027.1 hPa
Clouds: Clear
Visibility: 10 miles , 16 km
2020/01/23 22:56 KHPN 232256Z 00000KT 10SM CLR 02/M09 A3033 RMK SLP280
 
KHWV - , , USA
Distance from station: ESE 26mi, 41km
Updated: 01/23/2020 5:56pm
Clear
Clear
 Wind from calm
Wind: Calm
Temperature: 36°F , 2°C
Dew Point: 25°F , -4°C
Humidity: 65%
Barometer: 30.37 inHg , 1028.4 hPa
Clouds: Clear
Visibility: 10 miles , 16 km
2020/01/23 22:56 KHWV 232256Z AUTO 00000KT 10SM CLR 02/M04 A3037 RMK AO2 SLP285 T00171044 TSNO
KJFK - , , USA
Distance from station: SW 29mi, 46km
Updated: 01/23/2020 5:51pm
Overcast
Overcast
 Wind from S
Wind: S 5 mph , 7 km/h
Temperature: 39°F , 4°C
Wind Chill: 35°F , 2°C
Dew Point: 25°F , -4°C
Humidity: 56%
Barometer: 30.37 inHg , 1028.4 hPa
Clouds: Overcast
Visibility: 10 miles , 16 km
Cloud details: Overcast 23000 ft
2020/01/23 22:51 KJFK 232251Z 18004KT 10SM OVC230 04/M04 A3037 RMK AO2 SLP282 T00441039 $
 
KLGA - , , USA
Distance from station: WSW 29mi, 47km
Updated: 01/23/2020 5:51pm
Overcast
Overcast
 Wind from S
Wind: S 7 mph , 11 km/h
Temperature: 45°F , 7°C
Wind Chill: 41°F , 5°C
Dew Point: 14°F , -10°C
Humidity: 29%
Barometer: 30.35 inHg , 1027.8 hPa
Clouds: Overcast
Visibility: 10 miles , 16 km
Cloud details: Overcast 25000 ft
2020/01/23 22:51 KLGA 232251Z 18006KT 10SM OVC250 07/M10 A3035 RMK AO2 SLP277 T00721100